createdAt,value
2017-10-23T00:00:11.879Z,92.4
2017-10-23T00:01:14.319Z,92.4
2017-10-23T00:02:16.687Z,92.3
2017-10-23T00:03:19.067Z,92.3
2017-10-23T00:04:21.435Z,92.4
2017-10-23T00:05:23.820Z,92.4
2017-10-23T00:06:26.193Z,92.3
2017-10-23T00:07:28.947Z,92.3
2017-10-23T00:08:31.313Z,92.3
2017-10-23T00:09:33.689Z,92.3
2017-10-23T00:10:36.063Z,92.3
2017-10-23T00:11:38.437Z,92.3
2017-10-23T00:12:40.811Z,92.2
2017-10-23T00:13:43.186Z,92.2
2017-10-23T00:14:45.560Z,92.2
2017-10-23T00:15:48.326Z,92.2
2017-10-23T00:16:50.701Z,92.2
2017-10-23T00:17:53.076Z,92.3
2017-10-23T00:18:55.807Z,92.3
2017-10-23T00:19:58.183Z,92.2
2017-10-23T00:21:00.812Z,92.2
2017-10-23T00:22:03.182Z,92.2
2017-10-23T00:23:05.565Z,92.1
2017-10-23T00:24:07.943Z,92.1
2017-10-23T00:25:10.311Z,92.1
2017-10-23T00:26:12.946Z,92.2
2017-10-23T00:27:15.330Z,92.2
2017-10-23T00:28:17.703Z,92.1
2017-10-23T00:29:20.085Z,92.1
2017-10-23T00:30:22.468Z,92
2017-10-23T00:31:24.836Z,92
2017-10-23T00:32:27.215Z,92.1
2017-10-23T00:33:29.588Z,92.1
2017-10-23T00:34:31.957Z,92
2017-10-23T00:35:34.333Z,92
2017-10-23T00:36:36.721Z,92.1
2017-10-23T00:37:39.177Z,92
2017-10-23T00:38:42.033Z,91.9
2017-10-23T00:39:44.402Z,91.9
2017-10-23T00:40:46.770Z,91.9
2017-10-23T00:41:49.150Z,92
2017-10-23T00:42:51.525Z,92
2017-10-23T00:43:53.893Z,91.9
2017-10-23T00:44:56.274Z,91.9
2017-10-23T00:45:59.008Z,91.9
2017-10-23T00:47:01.383Z,92
2017-10-23T00:48:03.762Z,91.9
2017-10-23T00:49:06.156Z,91.9
2017-10-23T00:50:08.516Z,92
2017-10-23T00:51:10.889Z,91.9
2017-10-23T00:52:13.257Z,92
2017-10-23T00:53:15.634Z,91.9
2017-10-23T00:54:18.551Z,91.9
2017-10-23T00:55:20.916Z,92
2017-10-23T00:56:23.294Z,92
2017-10-23T00:57:25.678Z,92
2017-10-23T00:58:28.055Z,92
2017-10-23T00:59:30.435Z,92
2017-10-23T01:00:32.804Z,92
2017-10-23T01:01:35.178Z,92
2017-10-23T01:02:37.553Z,92
2017-10-23T01:03:40.703Z,91.9
2017-10-23T01:04:43.095Z,91.9
2017-10-23T01:05:45.470Z,92
2017-10-23T01:06:47.844Z,91.9
2017-10-23T01:07:50.225Z,91.9
2017-10-23T01:08:52.605Z,92
2017-10-23T01:09:54.983Z,92
2017-10-23T01:10:57.369Z,92.1
2017-10-23T01:11:59.736Z,91.9
2017-10-23T01:13:02.109Z,92
2017-10-23T01:14:04.493Z,92.1
2017-10-23T01:15:06.868Z,91.9
2017-10-23T01:16:09.474Z,91.8
2017-10-23T01:17:12.173Z,91.9
2017-10-23T01:18:14.565Z,92
2017-10-23T01:19:16.931Z,92
2017-10-23T01:20:19.305Z,91.9
2017-10-23T01:21:21.680Z,91.9
2017-10-23T01:22:24.051Z,92
2017-10-23T01:23:26.435Z,92
2017-10-23T01:24:28.810Z,91.9
2017-10-23T01:25:31.192Z,91.8
2017-10-23T01:26:33.558Z,91.8
2017-10-23T01:27:35.929Z,91.8
2017-10-23T01:28:38.316Z,91.8
2017-10-23T01:29:40.689Z,91.8
2017-10-23T01:30:43.073Z,91.9
2017-10-23T01:31:45.441Z,92
2017-10-23T01:32:47.811Z,92
2017-10-23T01:33:50.189Z,92
2017-10-23T01:34:52.570Z,92
2017-10-23T01:35:55.266Z,92
2017-10-23T01:36:57.811Z,92
2017-10-23T01:38:01.077Z,92
2017-10-23T01:39:03.885Z,91.9
2017-10-23T01:40:06.252Z,91.9
2017-10-23T01:41:08.623Z,91.9
2017-10-23T01:42:10.989Z,91.8
2017-10-23T01:43:13.700Z,91.8
2017-10-23T01:44:16.078Z,91.9
2017-10-23T01:45:18.457Z,91.9
2017-10-23T01:46:20.836Z,91.8
2017-10-23T01:47:23.207Z,91.8
2017-10-23T01:48:25.567Z,91.8
2017-10-23T01:49:27.940Z,91.8
2017-10-23T01:50:30.315Z,91.9
2017-10-23T01:51:32.677Z,91.8
2017-10-23T01:52:35.406Z,91.8
2017-10-23T01:53:37.779Z,91.7
2017-10-23T01:54:40.147Z,91.8
2017-10-23T01:55:42.530Z,91.8
2017-10-23T01:56:44.902Z,91.8
2017-10-23T01:57:47.269Z,91.8
2017-10-23T01:58:49.645Z,91.9
2017-10-23T01:59:52.026Z,92
2017-10-23T02:00:54.400Z,92
2017-10-23T02:01:56.758Z,92
2017-10-23T02:02:59.489Z,92
2017-10-23T02:04:01.862Z,91.9
2017-10-23T02:05:04.235Z,91.9
2017-10-23T02:06:06.615Z,91.8
2017-10-23T02:07:09.344Z,91.9
2017-10-23T02:08:11.718Z,91.9
2017-10-23T02:09:14.100Z,91.9
2017-10-23T02:10:16.469Z,91.9
2017-10-23T02:11:18.843Z,91.9
2017-10-23T02:12:21.215Z,91.9
2017-10-23T02:13:23.587Z,91.9
2017-10-23T02:14:25.987Z,91.8
2017-10-23T02:15:28.349Z,91.8
2017-10-23T02:16:30.710Z,91.9
2017-10-23T02:17:33.077Z,91.9
2017-10-23T02:18:35.464Z,92.1
2017-10-23T02:19:37.834Z,92.1
2017-10-23T02:20:40.205Z,92.1
2017-10-23T02:21:42.922Z,92
2017-10-23T02:22:45.645Z,92
2017-10-23T02:23:48.046Z,92
2017-10-23T02:24:50.428Z,92
2017-10-23T02:25:52.786Z,92
2017-10-23T02:26:55.161Z,91.9
2017-10-23T02:27:57.542Z,91.9
2017-10-23T02:28:59.922Z,91.9
2017-10-23T02:30:02.292Z,91.9
2017-10-23T02:31:04.665Z,92
2017-10-23T02:32:07.037Z,91.9
2017-10-23T02:33:09.411Z,92.1
2017-10-23T02:34:11.787Z,92
2017-10-23T02:35:14.535Z,92
2017-10-23T02:36:16.895Z,92
2017-10-23T02:37:19.278Z,91.9
2017-10-23T02:38:21.646Z,92
2017-10-23T02:39:24.013Z,91.9
2017-10-23T02:40:26.389Z,92
2017-10-23T02:41:28.764Z,92
2017-10-23T02:42:31.126Z,92
2017-10-23T02:43:33.509Z,92
2017-10-23T02:44:35.882Z,92
2017-10-23T02:45:38.249Z,92
2017-10-23T02:46:40.990Z,92.1
2017-10-23T02:47:43.357Z,92.1
2017-10-23T02:48:45.724Z,92.1
2017-10-23T02:49:48.110Z,92
2017-10-23T02:50:50.484Z,92
2017-10-23T02:51:52.873Z,92.1
2017-10-23T02:52:55.242Z,92
2017-10-23T02:53:57.627Z,91.9
2017-10-23T02:54:59.994Z,92
2017-10-23T02:56:02.368Z,92
2017-10-23T02:57:04.732Z,92
2017-10-23T02:58:07.101Z,92
2017-10-23T02:59:09.475Z,91.9
2017-10-23T03:00:11.848Z,92
2017-10-23T03:01:14.232Z,91.9
2017-10-23T03:02:16.614Z,91.9
2017-10-23T03:03:18.985Z,92
2017-10-23T03:04:21.361Z,92
2017-10-23T03:05:23.730Z,91.9
2017-10-23T03:06:26.103Z,91.8
2017-10-23T03:07:28.825Z,91.9
2017-10-23T03:08:31.184Z,91.9
2017-10-23T03:09:33.552Z,91.9
2017-10-23T03:10:35.933Z,91.9
2017-10-23T03:11:38.690Z,91.9
2017-10-23T03:12:41.060Z,91.9
2017-10-23T03:13:43.435Z,92
2017-10-23T03:14:45.799Z,92.1
2017-10-23T03:15:48.920Z,92.1
2017-10-23T03:16:51.293Z,92
2017-10-23T03:17:53.662Z,92
2017-10-23T03:18:56.043Z,92
2017-10-23T03:19:58.409Z,92
2017-10-23T03:21:01.129Z,91.9
2017-10-23T03:22:03.512Z,91.8
2017-10-23T03:23:05.905Z,91.9
2017-10-23T03:24:08.624Z,92
2017-10-23T03:25:11.009Z,92
2017-10-23T03:26:13.377Z,92
2017-10-23T03:27:15.744Z,92
2017-10-23T03:28:18.124Z,92
2017-10-23T03:29:20.505Z,92
2017-10-23T03:30:22.881Z,91.9
2017-10-23T03:31:25.257Z,91.9
2017-10-23T03:32:27.640Z,91.8
2017-10-23T03:33:30.007Z,91.9
2017-10-23T03:34:32.368Z,91.8
2017-10-23T03:35:34.754Z,91.8
2017-10-23T03:36:37.123Z,91.9
2017-10-23T03:37:39.496Z,91.8
2017-10-23T03:38:41.874Z,91.9
2017-10-23T03:39:44.244Z,92
2017-10-23T03:40:46.615Z,92
2017-10-23T03:41:49.004Z,92
2017-10-23T03:42:51.370Z,92
2017-10-23T03:43:53.734Z,92
2017-10-23T03:44:56.110Z,92
2017-10-23T03:45:58.541Z,91.9
2017-10-23T03:47:00.918Z,91.9
2017-10-23T03:48:03.299Z,91.9
2017-10-23T03:49:05.656Z,91.8
2017-10-23T03:50:08.040Z,91.8
2017-10-23T03:51:10.419Z,91.9
2017-10-23T03:52:12.792Z,91.9
2017-10-23T03:53:15.167Z,91.8
2017-10-23T03:54:17.897Z,91.9
2017-10-23T03:55:20.267Z,91.9
2017-10-23T03:56:22.653Z,91.9
2017-10-23T03:57:25.033Z,91.7
2017-10-23T03:58:27.398Z,91.8
2017-10-23T03:59:29.765Z,91.8
2017-10-23T04:00:32.152Z,91.9
2017-10-23T04:01:34.521Z,91.8
2017-10-23T04:02:36.899Z,91.8
2017-10-23T04:03:39.285Z,91.8
2017-10-23T04:04:42.008Z,91.8
2017-10-23T04:05:44.387Z,91.8
2017-10-23T04:06:46.769Z,91.7
2017-10-23T04:07:49.127Z,91.7
2017-10-23T04:08:51.512Z,91.7
2017-10-23T04:09:53.887Z,91.8
2017-10-23T04:10:56.611Z,91.8
2017-10-23T04:11:58.992Z,91.8
2017-10-23T04:13:01.354Z,91.8
2017-10-23T04:14:03.726Z,91.8
2017-10-23T04:15:06.108Z,91.6
2017-10-23T04:16:08.481Z,91.7
2017-10-23T04:17:10.859Z,91.8
2017-10-23T04:18:13.235Z,91.9
2017-10-23T04:19:15.607Z,91.9
2017-10-23T04:20:17.984Z,91.8
2017-10-23T04:21:20.354Z,91.8
2017-10-23T04:22:22.718Z,91.8
2017-10-23T04:23:25.105Z,91.9
2017-10-23T04:24:27.845Z,91.9
2017-10-23T04:25:30.221Z,91.9
2017-10-23T04:26:32.603Z,91.8
2017-10-23T04:27:34.994Z,91.8
2017-10-23T04:28:37.374Z,91.8
2017-10-23T04:29:39.745Z,91.8
2017-10-23T04:30:42.110Z,91.8
2017-10-23T04:31:44.488Z,91.9
2017-10-23T04:32:46.858Z,91.9
2017-10-23T04:33:49.227Z,91.8
2017-10-23T04:34:51.604Z,91.9
2017-10-23T04:35:53.986Z,92
2017-10-23T04:36:56.358Z,92.1
2017-10-23T04:37:58.736Z,92
2017-10-23T04:39:01.106Z,92
2017-10-23T04:40:03.480Z,92.1
2017-10-23T04:41:06.233Z,92.1
2017-10-23T04:42:08.612Z,91.9
2017-10-23T04:43:11.332Z,91.9
2017-10-23T04:44:13.701Z,91.9
2017-10-23T04:45:16.074Z,91.9
2017-10-23T04:46:18.805Z,92
2017-10-23T04:47:21.186Z,92.1
2017-10-23T04:48:23.553Z,91.9
2017-10-23T04:49:25.923Z,91.9
2017-10-23T04:50:28.289Z,91.9
2017-10-23T04:51:31.022Z,91.8
2017-10-23T04:52:33.426Z,91.7
2017-10-23T04:53:35.800Z,91.8
2017-10-23T04:54:38.184Z,91.8
2017-10-23T04:55:40.557Z,91.8
2017-10-23T04:56:42.936Z,91.8
2017-10-23T04:57:45.302Z,91.9
2017-10-23T04:58:47.672Z,91.9
2017-10-23T04:59:50.052Z,91.9
2017-10-23T05:00:52.428Z,91.8
2017-10-23T05:01:54.803Z,91.8
2017-10-23T05:02:57.537Z,91.8
2017-10-23T05:03:59.905Z,91.8
2017-10-23T05:05:02.273Z,91.9
2017-10-23T05:06:05.007Z,91.8
2017-10-23T05:07:07.372Z,91.7
2017-10-23T05:08:09.751Z,91.8
2017-10-23T05:09:12.136Z,91.9
2017-10-23T05:10:14.504Z,91.8
2017-10-23T05:11:16.879Z,91.8
2017-10-23T05:12:19.263Z,91.8
2017-10-23T05:13:21.975Z,91.8
2017-10-23T05:14:24.344Z,91.9
2017-10-23T05:15:26.724Z,91.8
2017-10-23T05:16:29.101Z,91.7
2017-10-23T05:17:31.485Z,91.8
2017-10-23T05:18:33.860Z,91.9
2017-10-23T05:19:36.231Z,91.9
2017-10-23T05:20:38.612Z,92
2017-10-23T05:21:40.981Z,92
2017-10-23T05:22:43.352Z,91.9
2017-10-23T05:23:45.726Z,91.9
2017-10-23T05:24:48.104Z,91.9
2017-10-23T05:25:50.484Z,92
2017-10-23T05:26:52.856Z,91.9
2017-10-23T05:27:55.245Z,91.8
2017-10-23T05:28:57.614Z,91.9
2017-10-23T05:30:00.350Z,92
2017-10-23T05:31:02.711Z,92.1
2017-10-23T05:32:05.085Z,92.1
2017-10-23T05:33:07.450Z,92.1
2017-10-23T05:34:09.824Z,92
2017-10-23T05:35:12.193Z,92.1
2017-10-23T05:36:14.566Z,92.1
2017-10-23T05:37:16.952Z,92.1
2017-10-23T05:38:19.319Z,92.1
2017-10-23T05:39:21.688Z,92.1
2017-10-23T05:40:24.070Z,92
2017-10-23T05:41:26.443Z,92
2017-10-23T05:42:28.820Z,92
2017-10-23T05:43:31.188Z,92.1
2017-10-23T05:44:33.566Z,92.1
2017-10-23T05:45:35.951Z,92
2017-10-23T05:46:38.324Z,91.9
2017-10-23T05:47:40.699Z,91.9
2017-10-23T05:48:43.412Z,91.9
2017-10-23T05:49:45.797Z,91.9
2017-10-23T05:50:48.514Z,91.9
2017-10-23T05:51:50.892Z,91.8
2017-10-23T05:52:53.606Z,91.9
2017-10-23T05:53:55.978Z,91.9
2017-10-23T05:54:58.363Z,91.9
2017-10-23T05:56:00.739Z,92
2017-10-23T05:57:03.103Z,91.9
2017-10-23T05:58:05.491Z,91.9
2017-10-23T05:59:07.856Z,92
2017-10-23T06:00:10.225Z,92
2017-10-23T06:01:12.591Z,92.1
2017-10-23T06:02:14.970Z,92
2017-10-23T06:03:17.336Z,92
2017-10-23T06:04:19.720Z,91.9
2017-10-23T06:05:22.093Z,92
2017-10-23T06:06:24.464Z,91.9
2017-10-23T06:07:27.191Z,92
2017-10-23T06:08:29.569Z,92
2017-10-23T06:09:32.288Z,92
2017-10-23T06:10:34.675Z,92
2017-10-23T06:11:37.041Z,92
2017-10-23T06:12:39.426Z,92
2017-10-23T06:13:41.800Z,92
2017-10-23T06:14:44.450Z,91.9
2017-10-23T06:15:46.820Z,91.9
2017-10-23T06:16:49.192Z,92
2017-10-23T06:17:51.549Z,92.1
2017-10-23T06:18:53.939Z,92.1
2017-10-23T06:20:02.594Z,92.1
2017-10-23T06:21:05.036Z,92.1
2017-10-23T06:22:07.463Z,92.1
2017-10-23T06:23:09.885Z,92.1
2017-10-23T06:24:12.312Z,92.1
2017-10-23T06:25:14.744Z,92
2017-10-23T06:26:17.161Z,91.9
2017-10-23T06:27:19.593Z,91.8
2017-10-23T06:28:22.026Z,91.8
2017-10-23T06:29:24.456Z,91.9
2017-10-23T06:30:26.891Z,91.9
2017-10-23T06:31:29.322Z,92
2017-10-23T06:32:32.102Z,92.1
2017-10-23T06:33:34.535Z,92.1
2017-10-23T06:34:36.958Z,92.2
2017-10-23T06:35:39.388Z,92.3
2017-10-23T06:36:41.817Z,92.3
2017-10-23T06:37:44.231Z,92.3
2017-10-23T06:38:46.615Z,92.3
2017-10-23T06:39:49.337Z,92.2
2017-10-23T06:40:51.769Z,92.2
2017-10-23T06:41:54.140Z,92.2
2017-10-23T06:42:56.539Z,92.2
2017-10-23T06:43:58.988Z,92.1
2017-10-23T06:45:01.452Z,92.1
2017-10-23T06:46:03.857Z,92.2
2017-10-23T06:47:06.261Z,92.3
2017-10-23T06:48:08.691Z,92.3
2017-10-23T06:49:11.534Z,92.2
2017-10-23T06:50:13.964Z,92.1
2017-10-23T06:51:16.706Z,92.1
2017-10-23T06:52:19.445Z,92
2017-10-23T06:53:21.938Z,92
2017-10-23T06:54:24.314Z,92
2017-10-23T06:55:27.471Z,92.1
2017-10-23T06:56:29.901Z,92
2017-10-23T06:57:33.145Z,92
2017-10-23T06:58:35.792Z,92
2017-10-23T06:59:38.158Z,92
2017-10-23T07:00:40.557Z,92.1
2017-10-23T07:01:43.119Z,92
2017-10-23T07:02:45.480Z,92.1
2017-10-23T07:03:48.536Z,91.9
2017-10-23T07:04:51.744Z,91.9
2017-10-23T07:05:54.129Z,91.9
2017-10-23T07:06:56.841Z,92
2017-10-23T07:07:59.212Z,92.1
2017-10-23T07:09:01.580Z,92.1
2017-10-23T07:10:03.966Z,91.9
2017-10-23T07:11:06.336Z,91.9
2017-10-23T07:12:08.714Z,91.9
2017-10-23T07:13:11.077Z,91.9
2017-10-23T07:14:13.472Z,91.8
2017-10-23T07:15:15.895Z,91.8
2017-10-23T07:16:18.320Z,91.9
2017-10-23T07:17:20.967Z,91.9
2017-10-23T07:18:23.430Z,91.9
2017-10-23T07:19:25.999Z,91.9
2017-10-23T07:20:28.475Z,91.8
2017-10-23T07:21:31.003Z,91.8
2017-10-23T07:22:33.445Z,91.8
2017-10-23T07:23:35.978Z,91.8
2017-10-23T07:24:38.409Z,91.8
2017-10-23T07:25:41.559Z,91.9
2017-10-23T07:26:44.056Z,92
2017-10-23T07:27:46.606Z,92
2017-10-23T07:28:49.102Z,92
2017-10-23T07:29:51.929Z,92
2017-10-23T07:30:55.503Z,92
2017-10-23T07:31:58.323Z,92
2017-10-23T07:33:01.266Z,92.1
2017-10-23T07:34:03.699Z,92.1
2017-10-23T07:35:06.643Z,92.1
2017-10-23T07:36:09.146Z,92.1
2017-10-23T07:37:11.594Z,92.2
2017-10-23T07:38:14.245Z,92.3
2017-10-23T07:39:16.716Z,92.3
2017-10-23T07:40:19.162Z,92.2
2017-10-23T07:41:21.584Z,92.3
2017-10-23T07:42:24.064Z,92.4
2017-10-23T07:43:26.665Z,92.5
2017-10-23T07:44:29.110Z,92.4
2017-10-23T07:45:32.121Z,92.5
2017-10-23T07:46:34.897Z,92.4
2017-10-23T07:47:37.327Z,92.4
2017-10-23T07:48:40.117Z,92.3
2017-10-23T07:49:42.775Z,92.3
2017-10-23T07:50:45.200Z,92.3
2017-10-23T07:51:47.620Z,92.3
2017-10-23T07:52:50.211Z,92.4
2017-10-23T07:53:52.634Z,92.3
2017-10-23T07:54:55.455Z,92.4
2017-10-23T07:55:57.885Z,92.5
2017-10-23T07:57:00.508Z,92.6
2017-10-23T07:58:03.288Z,92.5
2017-10-23T07:59:05.731Z,92.4
2017-10-23T08:00:08.392Z,92.4
2017-10-23T08:01:10.809Z,92.4
2017-10-23T08:02:13.245Z,92.3
2017-10-23T08:03:16.030Z,92.3
2017-10-23T08:04:18.565Z,92.3
2017-10-23T08:05:20.991Z,92.3
2017-10-23T08:06:23.412Z,92.3
2017-10-23T08:07:26.393Z,92.3
2017-10-23T08:08:28.839Z,92.3
2017-10-23T08:09:31.612Z,92.3
2017-10-23T08:10:34.031Z,92.4
2017-10-23T08:11:36.490Z,92.4
2017-10-23T08:12:38.912Z,92.4
2017-10-23T08:13:41.354Z,92.4
2017-10-23T08:14:43.788Z,92.5
2017-10-23T08:15:46.197Z,92.5
2017-10-23T08:16:48.645Z,92.6
2017-10-23T08:17:51.072Z,92.6
2017-10-23T08:18:53.850Z,92.7
2017-10-23T08:19:56.280Z,92.7
2017-10-23T08:20:58.702Z,92.7
2017-10-23T08:22:01.122Z,92.8
2017-10-23T08:23:03.562Z,92.7
2017-10-23T08:24:06.353Z,92.7
2017-10-23T08:25:09.153Z,92.7
2017-10-23T08:26:11.570Z,92.7
2017-10-23T08:27:14.014Z,92.6
2017-10-23T08:28:16.437Z,92.6
2017-10-23T08:29:18.859Z,92.6
2017-10-23T08:30:21.668Z,92.6
2017-10-23T08:31:24.092Z,92.6
2017-10-23T08:32:26.544Z,92.7
2017-10-23T08:33:28.959Z,92.6
2017-10-23T08:34:31.372Z,92.6
2017-10-23T08:35:33.795Z,92.5
2017-10-23T08:36:36.227Z,92.6
2017-10-23T08:37:38.654Z,92.5
2017-10-23T08:38:41.083Z,92.5
2017-10-23T08:39:43.512Z,92.5
2017-10-23T08:40:45.934Z,92.5
2017-10-23T08:41:48.370Z,92.5
2017-10-23T08:42:51.525Z,92.4
2017-10-23T08:43:53.963Z,92.4
2017-10-23T08:44:56.392Z,92.5
2017-10-23T08:45:59.172Z,92.5
2017-10-23T08:47:01.604Z,92.5
2017-10-23T08:48:04.032Z,92.5
2017-10-23T08:49:06.452Z,92.5
2017-10-23T08:50:08.883Z,92.4
2017-10-23T08:51:11.311Z,92.5
2017-10-23T08:52:13.744Z,92.6
2017-10-23T08:53:16.536Z,92.6
2017-10-23T08:54:18.971Z,92.6
2017-10-23T08:55:21.400Z,92.6
2017-10-23T08:56:23.838Z,92.5
2017-10-23T08:57:26.254Z,92.4
2017-10-23T08:58:28.694Z,92.5
2017-10-23T08:59:31.117Z,92.4
2017-10-23T09:00:33.542Z,92.4
2017-10-23T09:01:35.968Z,92.4
2017-10-23T09:02:38.772Z,92.3
2017-10-23T09:03:41.199Z,92.3
2017-10-23T09:04:43.642Z,92.3
2017-10-23T09:05:46.054Z,92.3
2017-10-23T09:06:48.479Z,92.3
2017-10-23T09:07:51.269Z,92.3
2017-10-23T09:08:53.690Z,92.3
2017-10-23T09:09:56.130Z,92.3
2017-10-23T09:10:58.564Z,92.2
2017-10-23T09:12:00.990Z,92.1
2017-10-23T09:13:03.424Z,92.1
2017-10-23T09:14:05.851Z,92.1
2017-10-23T09:15:08.268Z,92.1
2017-10-23T09:16:10.712Z,92.2
2017-10-23T09:17:13.123Z,92.3
2017-10-23T09:18:15.916Z,92.2
2017-10-23T09:19:18.352Z,92.3
2017-10-23T09:20:20.776Z,92.4
2017-10-23T09:21:23.202Z,92.4
2017-10-23T09:22:25.637Z,92.3
2017-10-23T09:23:28.056Z,92.3
2017-10-23T09:24:30.844Z,92.2
2017-10-23T09:25:33.270Z,92.2
2017-10-23T09:26:35.696Z,92.2
2017-10-23T09:27:38.118Z,92
2017-10-23T09:28:40.901Z,92.1
2017-10-23T09:29:43.342Z,92.2
2017-10-23T09:30:45.772Z,92.2
2017-10-23T09:31:48.199Z,92.2
2017-10-23T09:32:50.987Z,92.3
2017-10-23T09:33:53.423Z,92.3
2017-10-23T09:34:55.852Z,92.3
2017-10-23T09:35:58.279Z,92.3
2017-10-23T09:37:00.706Z,92.4
2017-10-23T09:38:03.138Z,92.4
2017-10-23T09:39:05.567Z,92.4
2017-10-23T09:40:07.985Z,92.3
2017-10-23T09:41:10.431Z,92.4
2017-10-23T09:42:12.860Z,92.5
2017-10-23T09:43:15.635Z,92.4
2017-10-23T09:44:18.064Z,92.4
2017-10-23T09:45:20.493Z,92.5
2017-10-23T09:46:23.271Z,92.5
2017-10-23T09:47:25.712Z,92.5
2017-10-23T09:48:28.146Z,92.6
2017-10-23T09:49:30.923Z,92.6
2017-10-23T09:50:33.364Z,92.5
2017-10-23T09:51:35.790Z,92.5
2017-10-23T09:52:38.217Z,92.4
2017-10-23T09:53:40.650Z,92.3
2017-10-23T09:54:43.075Z,92.3
2017-10-23T09:55:45.492Z,92.4
2017-10-23T09:56:47.925Z,92.4
2017-10-23T09:57:50.359Z,92.5
2017-10-23T09:58:52.796Z,92.5
2017-10-23T09:59:55.224Z,92.5
2017-10-23T10:00:57.652Z,92.5
2017-10-23T10:02:00.085Z,92.5
2017-10-23T10:03:02.524Z,92.5
2017-10-23T10:04:04.952Z,92.4
2017-10-23T10:05:07.371Z,92.4
2017-10-23T10:06:09.804Z,92.4
2017-10-23T10:07:12.229Z,92.3
2017-10-23T10:08:14.662Z,92.4
2017-10-23T10:09:17.089Z,92.4
2017-10-23T10:10:19.523Z,92.4
2017-10-23T10:11:21.953Z,92.5
2017-10-23T10:12:24.392Z,92.6
2017-10-23T10:13:26.825Z,92.6
2017-10-23T10:14:29.251Z,92.6
2017-10-23T10:15:31.686Z,92.6
2017-10-23T10:16:34.117Z,92.6
2017-10-23T10:17:36.563Z,92.6
2017-10-23T10:18:38.985Z,92.6
2017-10-23T10:19:41.421Z,92.6
2017-10-23T10:20:43.851Z,92.6
2017-10-23T10:21:46.635Z,92.6
2017-10-23T10:22:49.422Z,92.5
2017-10-23T10:23:51.961Z,92.4
2017-10-23T10:24:54.409Z,92.4
2017-10-23T10:25:56.834Z,92.3
2017-10-23T10:26:59.266Z,92.2
2017-10-23T10:28:01.697Z,92.3
2017-10-23T10:29:04.175Z,92.3
2017-10-23T10:30:06.596Z,92.3
2017-10-23T10:31:09.212Z,92.4
2017-10-23T10:32:11.655Z,92.4
2017-10-23T10:33:14.072Z,92.3
2017-10-23T10:34:16.503Z,92.4
2017-10-23T10:35:18.939Z,92.4
2017-10-23T10:36:21.598Z,92.3
2017-10-23T10:37:24.040Z,92.3
2017-10-23T10:38:26.458Z,92.3
2017-10-23T10:39:29.293Z,92.3
2017-10-23T10:40:32.089Z,92.2
2017-10-23T10:41:34.520Z,92.1
2017-10-23T10:42:36.952Z,91.8
2017-10-23T10:43:39.383Z,91.8
2017-10-23T10:44:41.813Z,91.8
2017-10-23T10:45:44.246Z,91.8
2017-10-23T10:46:47.037Z,91.8
2017-10-23T10:47:49.455Z,91.8
2017-10-23T10:48:51.888Z,91.8
2017-10-23T10:49:54.319Z,91.8
2017-10-23T10:50:56.751Z,91.8
2017-10-23T10:51:59.186Z,91.8
2017-10-23T10:53:01.615Z,91.8
2017-10-23T10:54:04.050Z,91.8
2017-10-23T10:55:06.846Z,91.9
2017-10-23T10:56:09.270Z,91.9
2017-10-23T10:57:11.706Z,92
2017-10-23T10:58:14.493Z,92
2017-10-23T10:59:16.908Z,91.9
2017-10-23T11:00:19.338Z,92
2017-10-23T11:01:21.767Z,91.9
2017-10-23T11:02:24.186Z,91.9
2017-10-23T11:03:26.618Z,91.8
2017-10-23T11:04:29.399Z,91.9
2017-10-23T11:05:31.836Z,92
2017-10-23T11:06:34.267Z,92
2017-10-23T11:07:36.693Z,92
2017-10-23T11:08:39.121Z,92.1
2017-10-23T11:09:41.552Z,92.1
2017-10-23T11:15:57.798Z,92.1
2017-10-23T11:17:00.175Z,92.1
2017-10-23T11:18:02.555Z,92.1
2017-10-23T11:19:04.933Z,92.1
2017-10-23T11:20:07.321Z,92.2
2017-10-23T11:21:09.713Z,92.2
2017-10-23T11:22:12.107Z,92.2
2017-10-23T11:23:14.503Z,92.2
2017-10-23T11:24:16.872Z,92.1
2017-10-23T11:25:19.249Z,92.1
2017-10-23T11:26:21.629Z,92.1
2017-10-23T11:27:24.043Z,92
2017-10-23T11:28:26.419Z,92.1
2017-10-23T11:29:28.837Z,92.2
2017-10-23T11:30:31.235Z,92.2
2017-10-23T11:31:33.671Z,92.2
2017-10-23T11:32:36.192Z,92.2
2017-10-23T11:33:38.656Z,92.1
2017-10-23T11:34:41.031Z,92.1
2017-10-23T11:35:43.424Z,92.1
2017-10-23T11:36:45.813Z,92.1
2017-10-23T11:37:48.568Z,92.1
2017-10-23T11:38:50.989Z,92.1
2017-10-23T11:39:53.724Z,92.1
2017-10-23T11:40:56.114Z,91.9
2017-10-23T11:41:58.549Z,91.8
2017-10-23T11:43:00.957Z,91.8
2017-10-23T11:44:03.313Z,91.8
2017-10-23T11:45:05.701Z,91.9
2017-10-23T11:46:08.461Z,91.9
2017-10-23T11:47:10.848Z,91.9
2017-10-23T11:48:13.261Z,92
2017-10-23T11:49:15.627Z,92
2017-10-23T11:50:18.016Z,92.1
2017-10-23T11:51:21.101Z,91.9
2017-10-23T11:52:23.484Z,91.8
2017-10-23T11:53:25.877Z,91.9
2017-10-23T11:54:28.253Z,92
2017-10-23T11:55:30.618Z,92
2017-10-23T11:56:33.003Z,92.1
2017-10-23T11:57:35.417Z,92.1
2017-10-23T11:58:37.792Z,91.9
2017-10-23T11:59:40.170Z,91.8
2017-10-23T12:00:42.551Z,91.8
2017-10-23T12:01:44.921Z,91.8
2017-10-23T12:02:47.297Z,91.8
2017-10-23T12:03:50.044Z,91.8
2017-10-23T12:04:52.419Z,91.9
2017-10-23T12:05:54.802Z,91.9
2017-10-23T12:06:57.189Z,91.9
2017-10-23T12:07:59.914Z,92
2017-10-23T12:09:02.293Z,92
2017-10-23T12:10:04.671Z,92
2017-10-23T12:11:07.055Z,91.9
2017-10-23T12:12:09.441Z,91.9
2017-10-23T12:13:11.822Z,91.9
2017-10-23T12:14:14.189Z,91.9
2017-10-23T12:15:16.722Z,92
2017-10-23T12:16:19.112Z,92
2017-10-23T12:17:21.481Z,92.1
2017-10-23T12:18:23.866Z,92
2017-10-23T12:19:26.232Z,92
2017-10-23T12:20:28.607Z,92
2017-10-23T12:21:31.001Z,92
2017-10-23T12:22:33.381Z,92
2017-10-23T12:23:36.107Z,92
2017-10-23T12:24:38.496Z,92
2017-10-23T12:25:40.875Z,92
2017-10-23T12:26:43.254Z,91.9
2017-10-23T12:27:46.017Z,91.9
2017-10-23T12:29:18.577Z,91.8
2017-10-23T12:30:22.228Z,91.9
2017-10-23T12:31:24.669Z,91.8
2017-10-23T12:33:30.160Z,91.8
2017-10-23T12:34:32.528Z,91.8
2017-10-23T12:35:34.923Z,91.9
2017-10-23T12:36:37.295Z,91.9
2017-10-23T12:37:39.666Z,91.9
2017-10-23T12:38:42.049Z,92
2017-10-23T12:39:44.767Z,92
2017-10-23T12:40:47.148Z,91.9
2017-10-23T12:41:49.542Z,91.9
2017-10-23T12:42:51.928Z,91.8
2017-10-23T12:43:54.292Z,91.8
2017-10-23T12:44:56.673Z,91.8
2017-10-23T12:45:59.047Z,91.8
2017-10-23T12:47:01.437Z,91.8
2017-10-23T12:48:04.193Z,91.8
2017-10-23T12:49:06.602Z,91.8
2017-10-23T12:50:09.007Z,91.9
2017-10-23T12:51:11.389Z,91.8
2017-10-23T12:52:13.777Z,91.8
2017-10-23T12:53:16.151Z,91.8
2017-10-23T12:54:18.526Z,91.7
2017-10-23T12:55:20.903Z,91.7
2017-10-23T12:56:23.638Z,91.8
2017-10-23T12:57:26.018Z,91.8
2017-10-23T12:58:28.737Z,91.8
2017-10-23T12:59:31.122Z,91.7
2017-10-23T13:00:33.503Z,91.7
2017-10-23T13:01:37.038Z,91.6
2017-10-23T13:02:40.843Z,91.7
2017-10-23T13:03:43.486Z,91.7
2017-10-23T13:04:46.200Z,91.6
2017-10-23T13:05:48.585Z,91.5
2017-10-23T13:06:50.947Z,91.4
2017-10-23T13:07:53.321Z,91.4
2017-10-23T13:08:55.694Z,91.4
2017-10-23T13:09:58.422Z,91.3
2017-10-23T13:11:00.800Z,91.5
2017-10-23T13:12:03.184Z,91.5
2017-10-23T13:13:05.905Z,91.4
2017-10-23T13:14:08.288Z,91.4
2017-10-23T13:15:10.711Z,91.5
2017-10-23T13:16:13.073Z,91.6
2017-10-23T13:17:15.442Z,91.6
2017-10-23T13:18:18.173Z,91.6
2017-10-23T13:19:20.551Z,91.7
2017-10-23T13:20:22.928Z,91.7
2017-10-23T13:21:25.300Z,91.7
2017-10-23T13:22:27.674Z,91.6
2017-10-23T13:23:30.056Z,91.7
2017-10-23T13:24:32.440Z,91.7
2017-10-23T13:25:34.805Z,91.7
2017-10-23T13:26:37.540Z,91.8
2017-10-23T13:27:39.915Z,91.9
2017-10-23T13:28:42.293Z,91.9
2017-10-23T13:29:44.671Z,91.9
2017-10-23T13:30:47.059Z,91.9
2017-10-23T13:31:49.438Z,92
2017-10-23T13:32:52.166Z,92
2017-10-23T13:33:54.537Z,92.1
2017-10-23T13:34:56.924Z,92.2
2017-10-23T13:35:59.301Z,92.2
2017-10-23T13:37:01.683Z,92.4
2017-10-23T13:38:04.049Z,92.4
2017-10-23T13:39:06.424Z,92.4
2017-10-23T13:40:09.168Z,92.4
2017-10-23T13:41:11.884Z,92.2
2017-10-23T13:42:14.261Z,92.2
2017-10-23T13:43:16.639Z,92.1
2017-10-23T13:44:19.029Z,92.1
2017-10-23T13:45:21.405Z,91.8
2017-10-23T13:46:23.783Z,91.8
2017-10-23T13:47:26.157Z,91.8
2017-10-23T13:48:28.549Z,91.7
2017-10-23T13:49:31.625Z,91.8
2017-10-23T13:50:33.999Z,91.5
2017-10-23T13:51:36.384Z,91.6
2017-10-23T13:52:38.755Z,91.4
2017-10-23T13:53:41.142Z,91.7
2017-10-23T13:54:43.525Z,91.7
2017-10-23T13:55:46.294Z,91.8
2017-10-23T13:56:48.655Z,91.5
2017-10-23T13:57:51.042Z,91.8
2017-10-23T13:58:53.425Z,91.8
2017-10-23T13:59:55.806Z,91.7
2017-10-23T14:00:58.182Z,91.8
2017-10-23T14:02:00.572Z,91.7
2017-10-23T14:03:02.936Z,91.7
2017-10-23T14:04:05.333Z,91.5
2017-10-23T14:05:07.735Z,91.6
2017-10-23T14:06:10.109Z,91.7
2017-10-23T14:07:12.491Z,91.8
2017-10-23T14:08:14.893Z,91.8